sensor_id;sensor_type;location;lat;lon;timestamp;pressure;altitude;pressure_sealevel;temperature;humidity
4586;BME280;2305;50.118;8.952;2024-03-08T00:00:21;100739.50;;;6.23;100.00
4586;BME280;2305;50.118;8.952;2024-03-08T00:02:53;100742.81;;;6.11;100.00
4586;BME280;2305;50.118;8.952;2024-03-08T00:05:24;100742.28;;;6.20;100.00
4586;BME280;2305;50.118;8.952;2024-03-08T00:07:54;100737.59;;;6.11;100.00
4586;BME280;2305;50.118;8.952;2024-03-08T00:10:23;100741.13;;;6.10;100.00
4586;BME280;2305;50.118;8.952;2024-03-08T00:12:54;100737.84;;;6.06;100.00
4586;BME280;2305;50.118;8.952;2024-03-08T00:15:22;100739.72;;;6.04;100.00
4586;BME280;2305;50.118;8.952;2024-03-08T00:17:50;100733.81;;;6.01;100.00
4586;BME280;2305;50.118;8.952;2024-03-08T00:20:19;100734.47;;;6.04;100.00
4586;BME280;2305;50.118;8.952;2024-03-08T00:22:50;100734.81;;;5.98;100.00
4586;BME280;2305;50.118;8.952;2024-03-08T00:25:20;100739.13;;;5.99;100.00
4586;BME280;2305;50.118;8.952;2024-03-08T00:27:48;100734.91;;;5.97;100.00
4586;BME280;2305;50.118;8.952;2024-03-08T00:30:16;100741.59;;;5.87;100.00
4586;BME280;2305;50.118;8.952;2024-03-08T00:32:45;100738.28;;;5.83;100.00
4586;BME280;2305;50.118;8.952;2024-03-08T00:35:13;100738.28;;;5.83;100.00
4586;BME280;2305;50.118;8.952;2024-03-08T00:37:41;100735.00;;;5.80;100.00
4586;BME280;2305;50.118;8.952;2024-03-08T00:40:11;100733.22;;;5.80;100.00
4586;BME280;2305;50.118;8.952;2024-03-08T00:42:42;100728.13;;;5.77;100.00
4586;BME280;2305;50.118;8.952;2024-03-08T00:45:10;100730.16;;;5.72;100.00
4586;BME280;2305;50.118;8.952;2024-03-08T00:47:39;100717.56;;;5.79;100.00
4586;BME280;2305;50.118;8.952;2024-03-08T00:50:09;100722.91;;;5.62;100.00
4586;BME280;2305;50.118;8.952;2024-03-08T00:52:37;100715.31;;;5.57;100.00
4586;BME280;2305;50.118;8.952;2024-03-08T00:55:06;100720.72;;;5.54;100.00
4586;BME280;2305;50.118;8.952;2024-03-08T00:57:35;100718.25;;;5.51;100.00
4586;BME280;2305;50.118;8.952;2024-03-08T01:00:05;100714.03;;;5.49;100.00
4586;BME280;2305;50.118;8.952;2024-03-08T01:02:38;100707.13;;;5.48;100.00
4586;BME280;2305;50.118;8.952;2024-03-08T01:05:08;100701.50;;;5.55;100.00
4586;BME280;2305;50.118;8.952;2024-03-08T01:07:37;100696.28;;;5.55;100.00
4586;BME280;2305;50.118;8.952;2024-03-08T01:10:06;100701.97;;;5.46;100.00
4586;BME280;2305;50.118;8.952;2024-03-08T01:12:36;100694.25;;;5.45;100.00
4586;BME280;2305;50.118;8.952;2024-03-08T01:15:06;100692.47;;;5.45;100.00
4586;BME280;2305;50.118;8.952;2024-03-08T01:17:34;100690.03;;;5.42;100.00
4586;BME280;2305;50.118;8.952;2024-03-08T01:20:04;100690.78;;;5.44;100.00
4586;BME280;2305;50.118;8.952;2024-03-08T01:22:32;100687.81;;;5.35;100.00
4586;BME280;2305;50.118;8.952;2024-03-08T01:25:00;100683.53;;;5.34;100.00
4586;BME280;2305;50.118;8.952;2024-03-08T01:27:31;100677.72;;;5.44;100.00
4586;BME280;2305;50.118;8.952;2024-03-08T01:30:01;100683.38;;;5.37;100.00
4586;BME280;2305;50.118;8.952;2024-03-08T01:32:31;100684.88;;;5.41;100.00
4586;BME280;2305;50.118;8.952;2024-03-08T01:34:59;100675.69;;;5.34;100.00
4586;BME280;2305;50.118;8.952;2024-03-08T01:37:28;100669.53;;;5.35;100.00
4586;BME280;2305;50.118;8.952;2024-03-08T01:39:56;100664.56;;;5.30;100.00
4586;BME280;2305;50.118;8.952;2024-03-08T01:42:24;100666.44;;;5.28;100.00
4586;BME280;2305;50.118;8.952;2024-03-08T01:44:53;100664.91;;;5.24;100.00
4586;BME280;2305;50.118;8.952;2024-03-08T01:47:21;100651.00;;;5.24;100.00
4586;BME280;2305;50.118;8.952;2024-03-08T01:49:52;100658.06;;;5.22;100.00
4586;BME280;2305;50.118;8.952;2024-03-08T01:52:21;100648.53;;;5.21;100.00
4586;BME280;2305;50.118;8.952;2024-03-08T01:54:52;100647.13;;;5.15;100.00
4586;BME280;2305;50.118;8.952;2024-03-08T01:57:21;100649.72;;;5.15;100.00
4586;BME280;2305;50.118;8.952;2024-03-08T01:59:55;100639.34;;;5.14;100.00
4586;BME280;2305;50.118;8.952;2024-03-08T02:02:23;100639.28;;;5.15;100.00
4586;BME280;2305;50.118;8.952;2024-03-08T02:04:55;100633.63;;;5.07;100.00
4586;BME280;2305;50.118;8.952;2024-03-08T02:07:26;100632.56;;;5.11;100.00
4586;BME280;2305;50.118;8.952;2024-03-08T02:09:56;100632.78;;;5.07;100.00
4586;BME280;2305;50.118;8.952;2024-03-08T02:12:24;100623.44;;;5.03;100.00
4586;BME280;2305;50.118;8.952;2024-03-08T02:14:53;100625.31;;;5.01;100.00
4586;BME280;2305;50.118;8.952;2024-03-08T02:17:22;100622.09;;;4.96;100.00
4586;BME280;2305;50.118;8.952;2024-03-08T02:19:50;100615.53;;;5.04;100.00
4586;BME280;2305;50.118;8.952;2024-03-08T02:22:19;100612.25;;;5.01;100.00
4586;BME280;2305;50.118;8.952;2024-03-08T02:24:48;100607.09;;;4.99;100.00
4586;BME280;2305;50.118;8.952;2024-03-08T02:27:23;100601.81;;;5.01;100.00
4586;BME280;2305;50.118;8.952;2024-03-08T02:29:53;100601.81;;;5.01;100.00
4586;BME280;2305;50.118;8.952;2024-03-08T02:32:23;100602.56;;;5.03;100.00
4586;BME280;2305;50.118;8.952;2024-03-08T02:34:56;100607.78;;;5.03;100.00
4586;BME280;2305;50.118;8.952;2024-03-08T02:37:28;100605.00;;;5.06;100.00
4586;BME280;2305;50.118;8.952;2024-03-08T02:39:58;100600.09;;;5.00;100.00
4586;BME280;2305;50.118;8.952;2024-03-08T02:42:29;100599.34;;;4.98;100.00
4586;BME280;2305;50.118;8.952;2024-03-08T02:44:57;100600.03;;;5.01;100.00
4586;BME280;2305;50.118;8.952;2024-03-08T02:47:25;100602.72;;;5.00;100.00
4586;BME280;2305;50.118;8.952;2024-03-08T02:49:54;100600.03;;;5.01;100.00
4586;BME280;2305;50.118;8.952;2024-03-08T02:52:22;100598.41;;;4.99;100.00
4586;BME280;2305;50.118;8.952;2024-03-08T02:54:55;100598.66;;;4.94;100.00
4586;BME280;2305;50.118;8.952;2024-03-08T02:57:23;100601.34;;;4.93;100.00
4586;BME280;2305;50.118;8.952;2024-03-08T02:59:53;100599.66;;;4.92;100.00
4586;BME280;2305;50.118;8.952;2024-03-08T03:02:22;100606.94;;;4.87;100.00
4586;BME280;2305;50.118;8.952;2024-03-08T03:04:51;100593.94;;;4.85;100.00
4586;BME280;2305;50.118;8.952;2024-03-08T03:07:19;100593.03;;;4.86;100.00
4586;BME280;2305;50.118;8.952;2024-03-08T03:09:47;100593.09;;;4.85;100.00
4586;BME280;2305;50.118;8.952;2024-03-08T03:12:16;100591.50;;;4.82;100.00
4586;BME280;2305;50.118;8.952;2024-03-08T03:14:45;100586.53;;;4.78;100.00
4586;BME280;2305;50.118;8.952;2024-03-08T03:17:14;100587.38;;;4.78;100.00
4586;BME280;2305;50.118;8.952;2024-03-08T03:19:43;100590.50;;;4.69;100.00
4586;BME280;2305;50.118;8.952;2024-03-08T03:22:11;100586.28;;;4.67;100.00
4586;BME280;2305;50.118;8.952;2024-03-08T03:24:41;100593.31;;;4.65;100.00
4586;BME280;2305;50.118;8.952;2024-03-08T03:27:09;100591.75;;;4.62;100.00
4586;BME280;2305;50.118;8.952;2024-03-08T03:29:40;100591.06;;;4.59;100.00
4586;BME280;2305;50.118;8.952;2024-03-08T03:32:09;100590.19;;;4.58;100.00
4586;BME280;2305;50.118;8.952;2024-03-08T03:34:37;100582.63;;;4.54;100.00
4586;BME280;2305;50.118;8.952;2024-03-08T03:37:06;100580.75;;;4.56;100.00
4586;BME280;2305;50.118;8.952;2024-03-08T03:39:35;100573.88;;;4.55;100.00
4586;BME280;2305;50.118;8.952;2024-03-08T03:42:11;100581.75;;;4.53;100.00
4586;BME280;2305;50.118;8.952;2024-03-08T03:44:41;100574.78;;;4.54;100.00
4586;BME280;2305;50.118;8.952;2024-03-08T03:47:10;100576.53;;;4.53;100.00
4586;BME280;2305;50.118;8.952;2024-03-08T03:49:38;100578.16;;;4.56;100.00
4586;BME280;2305;50.118;8.952;2024-03-08T03:52:07;100574.03;;;4.52;100.00
4586;BME280;2305;50.118;8.952;2024-03-08T03:54:35;100573.94;;;4.53;100.00
4586;BME280;2305;50.118;8.952;2024-03-08T03:57:04;100574.94;;;4.51;100.00
4586;BME280;2305;50.118;8.952;2024-03-08T03:59:32;100565.69;;;4.45;100.00
4586;BME280;2305;50.118;8.952;2024-03-08T04:02:02;100569.53;;;4.38;100.00
4586;BME280;2305;50.118;8.952;2024-03-08T04:04:30;100559.28;;;4.35;100.00
4586;BME280;2305;50.118;8.952;2024-03-08T04:06:59;100557.91;;;4.28;100.00
4586;BME280;2305;50.118;8.952;2024-03-08T04:09:29;100555.44;;;4.25;100.00
4586;BME280;2305;50.118;8.952;2024-03-08T04:11:57;100561.59;;;4.24;100.00
4586;BME280;2305;50.118;8.952;2024-03-08T04:14:27;100552.16;;;4.22;100.00
4586;BME280;2305;50.118;8.952;2024-03-08T04:16:55;100556.00;;;4.15;100.00
4586;BME280;2305;50.118;8.952;2024-03-08T04:19:25;100556.47;;;4.06;100.00
4586;BME280;2305;50.118;8.952;2024-03-08T04:21:55;100560.06;;;4.04;100.00
4586;BME280;2305;50.118;8.952;2024-03-08T04:24:26;100555.09;;;3.99;100.00
4586;BME280;2305;50.118;8.952;2024-03-08T04:26:54;100558.63;;;3.98;100.00
4586;BME280;2305;50.118;8.952;2024-03-08T04:29:21;100557.72;;;3.99;100.00
4586;BME280;2305;50.118;8.952;2024-03-08T04:31:50;100554.28;;;3.99;100.00
4586;BME280;2305;50.118;8.952;2024-03-08T04:34:20;100546.47;;;3.99;100.00
4586;BME280;2305;50.118;8.952;2024-03-08T04:36:50;100553.66;;;3.94;100.00
4586;BME280;2305;50.118;8.952;2024-03-08T04:39:18;100558.31;;;3.87;100.00
4586;BME280;2305;50.118;8.952;2024-03-08T04:41:49;100547.44;;;3.79;100.00
4586;BME280;2305;50.118;8.952;2024-03-08T04:44:17;100548.47;;;3.77;100.00
4586;BME280;2305;50.118;8.952;2024-03-08T04:46:45;100548.53;;;3.75;100.00
4586;BME280;2305;50.118;8.952;2024-03-08T04:49:13;100546.00;;;3.74;100.00
4586;BME280;2305;50.118;8.952;2024-03-08T04:51:47;100554.69;;;3.74;100.00
4586;BME280;2305;50.118;8.952;2024-03-08T04:54:17;100544.31;;;3.73;100.00
4586;BME280;2305;50.118;8.952;2024-03-08T04:56:45;100548.84;;;3.69;100.00
4586;BME280;2305;50.118;8.952;2024-03-08T04:59:15;100545.47;;;3.67;100.00
4586;BME280;2305;50.118;8.952;2024-03-08T05:01:43;100547.63;;;3.59;100.00
4586;BME280;2305;50.118;8.952;2024-03-08T05:04:14;100546.00;;;3.57;100.00
4586;BME280;2305;50.118;8.952;2024-03-08T05:06:42;100539.03;;;3.57;100.00
4586;BME280;2305;50.118;8.952;2024-03-08T05:09:10;100549.31;;;3.60;100.00
4586;BME280;2305;50.118;8.952;2024-03-08T05:11:43;100546.47;;;3.65;100.00
4586;BME280;2305;50.118;8.952;2024-03-08T05:14:11;100538.41;;;3.69;100.00
4586;BME280;2305;50.118;8.952;2024-03-08T05:16:43;100541.88;;;3.70;100.00
4586;BME280;2305;50.118;8.952;2024-03-08T05:19:16;100535.66;;;3.72;100.00
4586;BME280;2305;50.118;8.952;2024-03-08T05:21:44;100532.91;;;3.75;100.00
4586;BME280;2305;50.118;8.952;2024-03-08T05:24:12;100530.75;;;3.83;100.00
4586;BME280;2305;50.118;8.952;2024-03-08T05:26:43;100526.41;;;3.84;100.00
4586;BME280;2305;50.118;8.952;2024-03-08T05:29:12;100527.03;;;3.87;100.00
4586;BME280;2305;50.118;8.952;2024-03-08T05:31:46;100530.75;;;3.83;100.00
4586;BME280;2305;50.118;8.952;2024-03-08T05:34:16;100524.78;;;3.81;100.00
4586;BME280;2305;50.118;8.952;2024-03-08T05:36:46;100530.00;;;3.81;100.00
4586;BME280;2305;50.118;8.952;2024-03-08T05:39:16;100524.00;;;3.79;100.00
4586;BME280;2305;50.118;8.952;2024-03-08T05:41:46;100519.88;;;3.75;100.00
4586;BME280;2305;50.118;8.952;2024-03-08T05:44:15;100518.09;;;3.76;100.00
4586;BME280;2305;50.118;8.952;2024-03-08T05:46:44;100524.63;;;3.67;100.00
4586;BME280;2305;50.118;8.952;2024-03-08T05:49:13;100527.47;;;3.63;100.00
4586;BME280;2305;50.118;8.952;2024-03-08T05:51:41;100518.88;;;3.61;100.00
4586;BME280;2305;50.118;8.952;2024-03-08T05:54:11;100519.88;;;3.58;100.00
4586;BME280;2305;50.118;8.952;2024-03-08T05:56:43;100528.47;;;3.60;100.00
4586;BME280;2305;50.118;8.952;2024-03-08T05:59:13;100516.19;;;3.62;100.00
4586;BME280;2305;50.118;8.952;2024-03-08T06:01:41;100516.66;;;3.53;100.00
4586;BME280;2305;50.118;8.952;2024-03-08T06:04:11;100520.03;;;3.55;100.00
4586;BME280;2305;50.118;8.952;2024-03-08T06:06:40;100518.41;;;3.53;100.00
4586;BME280;2305;50.118;8.952;2024-03-08T06:09:10;100513.06;;;3.56;100.00
4586;BME280;2305;50.118;8.952;2024-03-08T06:11:44;100513.13;;;3.54;100.00
4586;BME280;2305;50.118;8.952;2024-03-08T06:14:14;100509.44;;;3.58;100.00
4586;BME280;2305;50.118;8.952;2024-03-08T06:16:45;100515.50;;;3.59;100.00
4586;BME280;2305;50.118;8.952;2024-03-08T06:19:17;100512.97;;;3.57;100.00
4586;BME280;2305;50.118;8.952;2024-03-08T06:21:45;100519.88;;;3.58;100.00
4586;BME280;2305;50.118;8.952;2024-03-08T06:24:13;100517.44;;;3.55;100.00
4586;BME280;2305;50.118;8.952;2024-03-08T06:26:42;100519.88;;;3.58;100.00
4586;BME280;2305;50.118;8.952;2024-03-08T06:29:10;100522.34;;;3.61;100.00
4586;BME280;2305;50.118;8.952;2024-03-08T06:31:41;100520.56;;;3.62;100.00
4586;BME280;2305;50.118;8.952;2024-03-08T06:34:09;100512.66;;;3.63;100.00
4586;BME280;2305;50.118;8.952;2024-03-08T06:36:38;100514.28;;;3.66;100.00
4586;BME280;2305;50.118;8.952;2024-03-08T06:39:06;100514.97;;;3.69;100.00
4586;BME280;2305;50.118;8.952;2024-03-08T06:41:37;100508.69;;;3.73;100.00
4586;BME280;2305;50.118;8.952;2024-03-08T06:44:07;100513.06;;;3.73;100.00
4586;BME280;2305;50.118;8.952;2024-03-08T06:46:36;100511.06;;;3.78;100.00
4586;BME280;2305;50.118;8.952;2024-03-08T06:49:06;100507.53;;;3.79;100.00
4586;BME280;2305;50.118;8.952;2024-03-08T06:51:38;100508.38;;;3.79;100.00
4586;BME280;2305;50.118;8.952;2024-03-08T06:54:07;100506.38;;;3.84;100.00
4586;BME280;2305;50.118;8.952;2024-03-08T06:56:36;100506.19;;;3.87;100.00
4586;BME280;2305;50.118;8.952;2024-03-08T06:59:05;100506.00;;;3.92;100.00
4586;BME280;2305;50.118;8.952;2024-03-08T07:01:33;100505.75;;;3.96;100.00
4586;BME280;2305;50.118;8.952;2024-03-08T07:04:03;100507.44;;;3.97;100.00
4586;BME280;2305;50.118;8.952;2024-03-08T07:06:34;100498.38;;;4.04;100.00
4586;BME280;2305;50.118;8.952;2024-03-08T07:09:03;100507.38;;;4.14;100.00
4586;BME280;2305;50.118;8.952;2024-03-08T07:11:34;100496.63;;;4.20;100.00
4586;BME280;2305;50.118;8.952;2024-03-08T07:14:03;100497.94;;;4.28;100.00
4586;BME280;2305;50.118;8.952;2024-03-08T07:16:35;100503.75;;;4.33;100.00
4586;BME280;2305;50.118;8.952;2024-03-08T07:19:05;100490.53;;;4.36;100.00
4586;BME280;2305;50.118;8.952;2024-03-08T07:21:35;100478.91;;;4.42;100.00
4586;BME280;2305;50.118;8.952;2024-03-08T07:24:03;100487.41;;;4.45;100.00
4586;BME280;2305;50.118;8.952;2024-03-08T07:26:46;100490.38;;;4.55;100.00
4586;BME280;2305;50.118;8.952;2024-03-08T07:29:16;100478.75;;;4.60;100.00
4586;BME280;2305;50.118;8.952;2024-03-08T07:31:44;100474.88;;;4.67;100.00
4586;BME280;2305;50.118;8.952;2024-03-08T07:34:17;100469.50;;;4.70;100.00
4586;BME280;2305;50.118;8.952;2024-03-08T07:36:47;100464.84;;;4.75;100.00
4586;BME280;2305;50.118;8.952;2024-03-08T07:39:19;100466.19;;;4.82;100.00
4586;BME280;2305;50.118;8.952;2024-03-08T07:41:50;100474.56;;;4.89;100.00
4586;BME280;2305;50.118;8.952;2024-03-08T07:44:21;100462.91;;;4.94;100.00
4586;BME280;2305;50.118;8.952;2024-03-08T07:46:52;100461.72;;;5.00;100.00
4586;BME280;2305;50.118;8.952;2024-03-08T07:49:24;100462.16;;;5.08;100.00
4586;BME280;2305;50.118;8.952;2024-03-08T07:51:54;100466.06;;;5.15;100.00
4586;BME280;2305;50.118;8.952;2024-03-08T07:54:22;100461.03;;;5.12;100.00
4586;BME280;2305;50.118;8.952;2024-03-08T07:56:50;100456.59;;;5.28;100.00
4586;BME280;2305;50.118;8.952;2024-03-08T07:59:19;100455.53;;;5.46;100.00
4586;BME280;2305;50.118;8.952;2024-03-08T08:01:48;100452.97;;;5.60;100.00
4586;BME280;2305;50.118;8.952;2024-03-08T08:04:16;100446.44;;;5.67;100.00
4586;BME280;2305;50.118;8.952;2024-03-08T08:06:45;100450.91;;;5.79;100.00
4586;BME280;2305;50.118;8.952;2024-03-08T08:09:15;100445.47;;;5.83;100.00
4586;BME280;2305;50.118;8.952;2024-03-08T08:11:49;100443.41;;;5.88;100.00
4586;BME280;2305;50.118;8.952;2024-03-08T08:14:17;100439.59;;;5.94;100.00
4586;BME280;2305;50.118;8.952;2024-03-08T08:16:46;100432.28;;;5.99;100.00
4586;BME280;2305;50.118;8.952;2024-03-08T08:19:15;100420.53;;;6.06;100.00
4586;BME280;2305;50.118;8.952;2024-03-08T08:21:43;100430.44;;;6.15;100.00
4586;BME280;2305;50.118;8.952;2024-03-08T08:24:10;100423.78;;;6.23;100.00
4586;BME280;2305;50.118;8.952;2024-03-08T08:26:40;100424.78;;;6.35;100.00
4586;BME280;2305;50.118;8.952;2024-03-08T08:29:08;100426.84;;;6.44;100.00
4586;BME280;2305;50.118;8.952;2024-03-08T08:31:36;100420.16;;;6.52;100.00
4586;BME280;2305;50.118;8.952;2024-03-08T08:34:04;100415.00;;;6.65;100.00
4586;BME280;2305;50.118;8.952;2024-03-08T08:36:33;100406.47;;;6.75;100.00
4586;BME280;2305;50.118;8.952;2024-03-08T08:39:04;100403.78;;;6.89;100.00
4586;BME280;2305;50.118;8.952;2024-03-08T08:41:40;100384.22;;;6.95;100.00
4586;BME280;2305;50.118;8.952;2024-03-08T08:44:09;100394.81;;;7.06;100.00
4586;BME280;2305;50.118;8.952;2024-03-08T08:46:42;100380.50;;;7.24;100.00
4586;BME280;2305;50.118;8.952;2024-03-08T08:49:10;100381.53;;;7.21;100.00
4586;BME280;2305;50.118;8.952;2024-03-08T08:51:41;100379.56;;;7.25;100.00
4586;BME280;2305;50.118;8.952;2024-03-08T08:54:11;100368.34;;;7.35;100.00
4586;BME280;2305;50.118;8.952;2024-03-08T08:56:45;100368.34;;;7.48;100.00
4586;BME280;2305;50.118;8.952;2024-03-08T08:59:14;100367.63;;;7.58;100.00
4586;BME280;2305;50.118;8.952;2024-03-08T09:01:46;100365.50;;;7.76;100.00
4586;BME280;2305;50.118;8.952;2024-03-08T09:04:14;100359.84;;;7.82;100.00
4586;BME280;2305;50.118;8.952;2024-03-08T09:06:43;100354.00;;;8.14;100.00
4586;BME280;2305;50.118;8.952;2024-03-08T09:09:11;100354.28;;;8.35;100.00
4586;BME280;2305;50.118;8.952;2024-03-08T09:11:40;100354.31;;;8.22;100.00
4586;BME280;2305;50.118;8.952;2024-03-08T09:14:10;100348.75;;;8.14;100.00
4586;BME280;2305;50.118;8.952;2024-03-08T09:16:39;100352.56;;;8.23;100.00
4586;BME280;2305;50.118;8.952;2024-03-08T09:19:07;100346.91;;;8.40;100.00
4586;BME280;2305;50.118;8.952;2024-03-08T09:21:38;100344.53;;;8.37;100.00
4586;BME280;2305;50.118;8.952;2024-03-08T09:24:07;100340.63;;;8.42;100.00
4586;BME280;2305;50.118;8.952;2024-03-08T09:26:35;100336.50;;;8.51;100.00
4586;BME280;2305;50.118;8.952;2024-03-08T09:29:06;100327.66;;;8.75;100.00
4586;BME280;2305;50.118;8.952;2024-03-08T09:31:35;100332.91;;;8.75;100.00
4586;BME280;2305;50.118;8.952;2024-03-08T09:34:04;100326.59;;;8.78;100.00
4586;BME280;2305;50.118;8.952;2024-03-08T09:36:37;100325.63;;;8.79;100.00
4586;BME280;2305;50.118;8.952;2024-03-08T09:39:05;100311.56;;;8.90;100.00
4586;BME280;2305;50.118;8.952;2024-03-08T09:41:34;100304.44;;;8.93;100.00
4586;BME280;2305;50.118;8.952;2024-03-08T09:44:03;100308.03;;;9.02;100.00
4586;BME280;2305;50.118;8.952;2024-03-08T09:46:35;100306.72;;;9.08;100.00
4586;BME280;2305;50.118;8.952;2024-03-08T09:49:06;100296.25;;;9.19;100.00
4586;BME280;2305;50.118;8.952;2024-03-08T09:51:35;100288.72;;;9.14;100.00
4586;BME280;2305;50.118;8.952;2024-03-08T09:54:05;100286.44;;;9.21;100.00
4586;BME280;2305;50.118;8.952;2024-03-08T09:56:43;100283.72;;;9.44;100.00
4586;BME280;2305;50.118;8.952;2024-03-08T09:59:11;100272.72;;;9.39;100.00
4586;BME280;2305;50.118;8.952;2024-03-08T10:02:13;100277.75;;;9.53;98.86
4586;BME280;2305;50.118;8.952;2024-03-08T10:04:43;100265.66;;;9.51;96.92
4586;BME280;2305;50.118;8.952;2024-03-08T10:07:13;100262.91;;;9.52;98.66
4586;BME280;2305;50.118;8.952;2024-03-08T10:09:45;100256.13;;;9.61;100.00
4586;BME280;2305;50.118;8.952;2024-03-08T10:12:17;100259.69;;;9.71;98.31
4586;BME280;2305;50.118;8.952;2024-03-08T10:14:46;100252.38;;;9.74;98.01
4586;BME280;2305;50.118;8.952;2024-03-08T10:17:15;100248.31;;;9.81;97.36
4586;BME280;2305;50.118;8.952;2024-03-08T10:19:49;100254.88;;;9.87;96.19
4586;BME280;2305;50.118;8.952;2024-03-08T10:22:18;100243.75;;;9.94;97.19
4586;BME280;2305;50.118;8.952;2024-03-08T10:24:47;100239.56;;;10.03;93.61
4586;BME280;2305;50.118;8.952;2024-03-08T10:27:16;100243.38;;;10.10;93.60
4586;BME280;2305;50.118;8.952;2024-03-08T10:29:46;100240.97;;;10.18;92.87
4586;BME280;2305;50.118;8.952;2024-03-08T10:32:16;100240.78;;;10.30;96.03
4586;BME280;2305;50.118;8.952;2024-03-08T10:34:44;100228.78;;;10.37;94.90
4586;BME280;2305;50.118;8.952;2024-03-08T10:37:15;100225.59;;;10.54;91.80
4586;BME280;2305;50.118;8.952;2024-03-08T10:39:49;100222.34;;;10.62;93.77
4586;BME280;2305;50.118;8.952;2024-03-08T10:42:24;100221.56;;;10.71;93.38
4586;BME280;2305;50.118;8.952;2024-03-08T10:45:02;100222.88;;;10.76;92.19
4586;BME280;2305;50.118;8.952;2024-03-08T10:47:40;100208.63;;;10.88;91.35
4586;BME280;2305;50.118;8.952;2024-03-08T10:50:12;100212.69;;;10.92;87.26
4586;BME280;2305;50.118;8.952;2024-03-08T10:52:49;100196.50;;;10.97;85.37
4586;BME280;2305;50.118;8.952;2024-03-08T10:55:18;100205.22;;;10.97;89.30
4586;BME280;2305;50.118;8.952;2024-03-08T10:57:47;100199.81;;;10.99;90.14
4586;BME280;2305;50.118;8.952;2024-03-08T11:00:16;100202.38;;;11.10;88.77
4586;BME280;2305;50.118;8.952;2024-03-08T11:02:55;100201.72;;;11.17;86.27
4586;BME280;2305;50.118;8.952;2024-03-08T11:05:36;100190.66;;;11.23;85.62
4586;BME280;2305;50.118;8.952;2024-03-08T11:08:17;100187.16;;;11.13;84.64
4586;BME280;2305;50.118;8.952;2024-03-08T11:10:49;100186.41;;;11.11;84.92
4586;BME280;2305;50.118;8.952;2024-03-08T11:13:40;100177.59;;;11.22;85.01
4586;BME280;2305;50.118;8.952;2024-03-08T11:16:11;100176.66;;;11.32;84.04
4586;BME280;2305;50.118;8.952;2024-03-08T11:18:40;100171.56;;;11.40;84.75
4586;BME280;2305;50.118;8.952;2024-03-08T11:21:08;100173.13;;;11.52;87.11
4586;BME280;2305;50.118;8.952;2024-03-08T11:23:42;100171.38;;;11.62;84.97
4586;BME280;2305;50.118;8.952;2024-03-08T11:26:22;100163.25;;;11.54;85.11
4586;BME280;2305;50.118;8.952;2024-03-08T11:28:51;100158.91;;;11.74;81.74
4586;BME280;2305;50.118;8.952;2024-03-08T11:31:24;100151.69;;;11.85;77.28
4586;BME280;2305;50.118;8.952;2024-03-08T11:33:55;100155.28;;;11.75;80.74
4586;BME280;2305;50.118;8.952;2024-03-08T11:36:24;100158.34;;;11.70;77.76
4586;BME280;2305;50.118;8.952;2024-03-08T11:38:53;100147.91;;;11.69;80.90
4586;BME280;2305;50.118;8.952;2024-03-08T11:41:27;100137.94;;;11.82;84.50
4586;BME280;2305;50.118;8.952;2024-03-08T11:44:05;100140.59;;;12.01;80.40
4586;BME280;2305;50.118;8.952;2024-03-08T11:46:34;100140.72;;;11.99;81.23
4586;BME280;2305;50.118;8.952;2024-03-08T11:49:03;100123.91;;;12.00;77.20
4586;BME280;2305;50.118;8.952;2024-03-08T11:51:32;100126.44;;;12.02;79.91
4586;BME280;2305;50.118;8.952;2024-03-08T11:54:01;100130.56;;;12.14;81.32
4586;BME280;2305;50.118;8.952;2024-03-08T11:56:32;100122.09;;;12.20;79.94
4586;BME280;2305;50.118;8.952;2024-03-08T11:59:00;100116.94;;;12.18;76.83
4586;BME280;2305;50.118;8.952;2024-03-08T12:01:29;100113.19;;;12.30;76.01
4586;BME280;2305;50.118;8.952;2024-03-08T12:03:59;100105.50;;;12.46;75.87
4586;BME280;2305;50.118;8.952;2024-03-08T12:06:36;100101.31;;;12.53;76.11
4586;BME280;2305;50.118;8.952;2024-03-08T12:09:10;100098.38;;;12.66;74.41
4586;BME280;2305;50.118;8.952;2024-03-08T12:11:38;100098.59;;;12.82;75.54
4586;BME280;2305;50.118;8.952;2024-03-08T12:14:09;100096.59;;;12.93;77.50
4586;BME280;2305;50.118;8.952;2024-03-08T12:16:37;100084.19;;;13.03;75.48
4586;BME280;2305;50.118;8.952;2024-03-08T12:19:08;100087.16;;;13.00;72.61
4586;BME280;2305;50.118;8.952;2024-03-08T12:21:39;100075.75;;;12.90;70.71
4586;BME280;2305;50.118;8.952;2024-03-08T12:24:16;100082.00;;;12.99;73.11
4586;BME280;2305;50.118;8.952;2024-03-08T12:26:46;100076.69;;;12.99;70.65
4586;BME280;2305;50.118;8.952;2024-03-08T12:29:16;100075.41;;;13.12;72.31
4586;BME280;2305;50.118;8.952;2024-03-08T12:31:47;100070.47;;;13.17;71.08
4586;BME280;2305;50.118;8.952;2024-03-08T12:34:16;100070.22;;;13.20;72.12
4586;BME280;2305;50.118;8.952;2024-03-08T12:36:49;100059.66;;;13.38;70.77
4586;BME280;2305;50.118;8.952;2024-03-08T12:39:19;100045.56;;;13.37;73.08
4586;BME280;2305;50.118;8.952;2024-03-08T12:41:54;100055.19;;;13.56;74.14
4586;BME280;2305;50.118;8.952;2024-03-08T12:44:26;100046.59;;;13.71;72.36
4586;BME280;2305;50.118;8.952;2024-03-08T12:46:57;100044.69;;;13.81;70.54
4586;BME280;2305;50.118;8.952;2024-03-08T12:49:29;100045.75;;;13.88;69.97
4586;BME280;2305;50.118;8.952;2024-03-08T12:51:59;100042.41;;;14.03;70.83
4586;BME280;2305;50.118;8.952;2024-03-08T12:54:27;100038.47;;;14.25;71.31
4586;BME280;2305;50.118;8.952;2024-03-08T12:56:55;100036.13;;;14.47;71.14
4586;BME280;2305;50.118;8.952;2024-03-08T12:59:23;100026.44;;;14.64;70.43
4586;BME280;2305;50.118;8.952;2024-03-08T13:01:53;100020.88;;;14.75;67.72
4586;BME280;2305;50.118;8.952;2024-03-08T13:04:23;100022.16;;;14.71;65.52
4586;BME280;2305;50.118;8.952;2024-03-08T13:06:52;100025.66;;;14.71;68.32
4586;BME280;2305;50.118;8.952;2024-03-08T13:09:23;100015.63;;;14.91;67.28
4586;BME280;2305;50.118;8.952;2024-03-08T13:11:54;100015.16;;;15.03;66.88
4586;BME280;2305;50.118;8.952;2024-03-08T13:14:25;100012.09;;;15.24;68.01
4586;BME280;2305;50.118;8.952;2024-03-08T13:16:53;100007.94;;;15.21;63.86
4586;BME280;2305;50.118;8.952;2024-03-08T13:19:22;100004.47;;;15.29;64.58
4586;BME280;2305;50.118;8.952;2024-03-08T13:21:50;100000.53;;;15.41;65.37
4586;BME280;2305;50.118;8.952;2024-03-08T13:24:20;100009.16;;;15.35;65.91
4586;BME280;2305;50.118;8.952;2024-03-08T13:26:50;100004.19;;;15.48;62.69